Meteorología y climatología de Navarra
Datos de la estación - Meteo Navarra

Estación de Yesa GN

Altitud 487 m.


Datos desde el 10/10/2019 hasta el 11/10/2019 en horario solar
Los datos son PROVISIONALES

Anterior Página 1 de 1 Siguiente Descargar: Formato para Excel 2000 o superior   Formato csv   Formato para OpenOffice Calc
Fecha Temperatura Humedad relativa Radiación global Insolación Precipitación Vel. viento 10 m Vel. viento 10 m Dir. viento 10 m
ºC % W/m² s l/m² m/s km/h º
10/10/2019 0:00 11.5 68 0.0 0 0.0 0.8 2.7 322
10/10/2019 0:10 11.4 70 0.0 0 0.0 0.7 2.4 345
10/10/2019 0:20 11.8 70 0.0 0 0.0 0.7 2.4 168
10/10/2019 0:30 11.5 71 0.0 0 0.0 0.5 1.8 346
10/10/2019 0:40 10.9 72 0.0 0 0.0 1.2 4.2 322
10/10/2019 0:50 10.1 76 0.0 0 0.0 1.9 6.7 340
10/10/2019 1:00 10.5 75 0.0 0 0.0 1.4 5.1 34
10/10/2019 1:10 10.5 76 0.0 0 0.0 2.5 9.0 87
10/10/2019 1:20 10.8 75 0.0 0 0.0 2.3 8.2 100
10/10/2019 1:30 10.8 75 0.0 0 0.0 1.3 4.7 116
10/10/2019 1:40 10.3 76 0.0 0 0.0 1.2 4.4 120
10/10/2019 1:50 10.0 77 0.0 0 0.0 1.0 3.7 92
10/10/2019 2:00 9.0 79 0.0 0 0.0 1.5 5.3 73
10/10/2019 2:10 8.6 81 0.0 0 0.0 0.8 2.8 138
10/10/2019 2:20 9.2 81 0.0 0 0.0 1.5 5.2 105
10/10/2019 2:30 9.6 81 0.0 0 0.0 1.2 4.2 112
10/10/2019 2:40 9.5 81 0.0 0 0.0 1.6 5.6 105
10/10/2019 2:50 9.4 81 0.0 0 0.0 3.2 11.6 103
10/10/2019 3:00 9.5 81 0.0 0 0.0 2.7 9.5 101
10/10/2019 3:10 9.4 80 0.0 0 0.0 3.5 12.5 103
10/10/2019 3:20 9.1 80 0.0 0 0.0 3.5 12.6 107
10/10/2019 3:30 8.8 81 0.0 0 0.0 3.3 12.0 106
10/10/2019 3:40 8.8 83 0.0 0 0.0 3.6 13.0 102
10/10/2019 3:50 8.5 83 0.0 0 0.0 2.7 9.8 108
10/10/2019 4:00 8.4 84 0.0 0 0.0 3.3 11.7 108
10/10/2019 4:10 8.3 84 0.0 0 0.0 3.8 13.5 102
10/10/2019 4:20 8.5 83 0.0 0 0.0 4.1 14.7 105
10/10/2019 4:30 8.2 83 0.0 0 0.0 3.6 13.0 108
10/10/2019 4:40 8.2 83 0.0 0 0.0 2.9 10.3 110
10/10/2019 4:50 8.1 83 0.0 0 0.0 2.8 10.1 108
10/10/2019 5:00 8.0 83 0.0 0 0.0 3.2 11.5 95
10/10/2019 5:10 7.8 85 0.0 0 0.0 2.7 9.6 105
10/10/2019 5:20 7.7 85 0.0 0 0.0 2.6 9.4 101
10/10/2019 5:30 7.7 86 0.0 0 0.0 3.3 12.0 99
10/10/2019 5:40 7.6 87 0.0 0 0.0 3.6 12.8 100
10/10/2019 5:50 7.5 86 0.0 0 0.0 3.2 11.4 91
10/10/2019 6:00 7.6 85 0.0 0 0.0 3.5 12.5 101
10/10/2019 6:10 7.6 84 0.0 0 0.0 3.6 13.0 102
10/10/2019 6:20 7.5 85 0.0 0 0.0 3.4 12.1 98
10/10/2019 6:30 7.4 86 11.3 0 0.0 3.7 13.2 101
10/10/2019 6:40 7.3 86 40.0 552 0.0 3.5 12.7 94
10/10/2019 6:50 7.4 86 64.5 600 0.0 4.1 14.6 102
10/10/2019 7:00 7.7 84 91.9 600 0.0 3.6 12.9 103
10/10/2019 7:10 7.9 83 121.7 600 0.0 3.9 13.9 101
10/10/2019 7:20 8.1 81 152.1 600 0.0 3.3 11.9 104
10/10/2019 7:30 8.4 80 183.8 600 0.0 3.9 14.0 104
10/10/2019 7:40 8.6 79 215.6 600 0.0 4.0 14.3 102
10/10/2019 7:50 8.8 78 247.0 600 0.0 3.5 12.7 111
10/10/2019 8:00 9.0 77 278.5 600 0.0 3.5 12.4 111
10/10/2019 8:10 9.4 75 309.6 600 0.0 3.3 11.9 109
10/10/2019 8:20 9.7 74 340.3 600 0.0 3.2 11.5 114
10/10/2019 8:30 10.1 72 369.9 600 0.0 3.4 12.2 113
10/10/2019 8:40 10.7 70 398.6 600 0.0 3.1 11.1 115
10/10/2019 8:50 11.0 70 426.0 600 0.0 3.0 10.6 118
10/10/2019 9:00 11.6 68 452.2 600 0.0 2.7 9.9 118
10/10/2019 9:10 12.2 66 477.3 600 0.0 2.6 9.4 120
10/10/2019 9:20 12.5 64 501.2 600 0.0 2.3 8.2 115
10/10/2019 9:30 13.0 63 524.6 600 0.0 2.1 7.6 127
10/10/2019 9:40 13.1 63 547.1 600 0.0 2.7 9.7 125
10/10/2019 9:50 13.7 62 568.4 600 0.0 1.9 6.7 120
10/10/2019 10:00 14.4 60 588.2 600 0.0 2.2 7.9 120
10/10/2019 10:10 14.8 60 606.4 600 0.0 1.9 6.7 121
10/10/2019 10:20 15.5 58 622.7 600 0.0 1.7 6.3 111
10/10/2019 10:30 16.5 55 636.4 600 0.0 1.6 5.8 135
10/10/2019 10:40 16.4 55 648.8 600 0.0 1.9 6.7 153
10/10/2019 10:50 16.8 54 659.8 600 0.0 1.6 5.8 154
10/10/2019 11:00 16.9 53 670.4 600 0.0 1.1 4.0 153
10/10/2019 11:10 17.8 50 678.6 600 0.0 1.3 4.7 169
10/10/2019 11:20 18.2 48 684.9 600 0.0 1.2 4.3 163
10/10/2019 11:30 18.6 47 689.8 600 0.0 1.5 5.5 172
10/10/2019 11:40 19.2 46 692.3 600 0.0 1.5 5.3 195
10/10/2019 11:50 19.7 43 695.4 600 0.0 1.9 6.9 170
10/10/2019 12:00 20.0 41 693.4 600 0.0 1.5 5.5 133
10/10/2019 12:10 20.4 41 691.0 600 0.0 1.2 4.4 216
10/10/2019 12:20 20.5 39 685.6 600 0.0 1.1 4.1 226
10/10/2019 12:30 20.6 37 681.2 600 0.0 1.1 3.9 158
10/10/2019 12:40 21.0 37 674.7 600 0.0 1.5 5.5 261
10/10/2019 12:50 21.0 36 666.2 600 0.0 0.8 3.0 289
10/10/2019 13:00 21.3 35 657.1 600 0.0 1.2 4.2 169
10/10/2019 13:10 21.8 33 647.9 600 0.0 1.5 5.4 188
10/10/2019 13:20 22.2 33 635.3 600 0.0 0.9 3.4 200
10/10/2019 13:30 22.4 31 620.0 600 0.0 1.2 4.4 191
10/10/2019 13:40 22.4 31 604.7 600 0.0 1.4 4.9 332
10/10/2019 13:50 22.3 30 586.8 600 0.0 1.3 4.8 271
10/10/2019 14:00 21.8 29 568.3 600 0.0 1.5 5.2 309
10/10/2019 14:10 21.7 28 547.2 600 0.0 1.4 4.9 222
10/10/2019 14:20 22.0 27 520.3 600 0.0 1.9 7.0 164
10/10/2019 14:30 22.1 27 502.5 600 0.0 1.3 4.6 343
10/10/2019 14:40 22.0 28 479.6 600 0.0 1.6 5.7 259
10/10/2019 14:50 22.1 26 445.4 600 0.0 1.5 5.4 309
10/10/2019 15:00 21.9 24 418.5 600 0.0 1.0 3.5 236
10/10/2019 15:10 22.2 23 393.5 600 0.0 1.3 4.5 309
10/10/2019 15:20 22.3 24 366.3 600 0.0 1.0 3.4 228
10/10/2019 15:30 22.6 24 337.9 600 0.0 1.0 3.5 215
10/10/2019 15:40 22.6 22 306.4 600 0.0 1.0 3.5 195
10/10/2019 15:50 22.8 22 273.7 600 0.0 1.3 4.5 240
10/10/2019 16:00 22.9 23 175.3 394 0.0 1.1 3.9 232
10/10/2019 16:10 22.8 21 39.2 0 0.0 0.8 2.7 264
10/10/2019 16:20 22.8 24 35.2 0 0.0 0.6 2.1 211
10/10/2019 16:30 22.8 25 32.4 0 0.0 0.7 2.3 262
10/10/2019 16:40 22.5 26 31.3 0 0.0 0.7 2.5 299
10/10/2019 16:50 21.8 27 25.4 0 0.0 0.7 2.6 280
10/10/2019 17:00 20.1 31 39.8 170 0.0 0.7 2.5 281
10/10/2019 17:10 18.4 35 10.0 0 0.0 0.8 3.0 287
10/10/2019 17:20 17.0 40 0.0 0 0.0 0.2 0.8 241
10/10/2019 17:30 15.9 45 0.0 0 0.0 0.0 0.0 158
10/10/2019 17:40 14.8 49 0.0 0 0.0 0.1 0.5 56
10/10/2019 17:50 14.1 51 0.0 0 0.0 0.0 0.0 48
10/10/2019 18:00 13.7 52 0.0 0 0.0 0.3 0.9 48
10/10/2019 18:10 13.3 53 0.0 0 0.0 0.3 1.2 6
10/10/2019 18:20 12.6 54 0.0 0 0.0 0.2 0.6 42
10/10/2019 18:30 12.2 56 0.0 0 0.0 0.5 1.7 356
10/10/2019 18:40 12.6 55 0.0 0 0.0 0.7 2.6 339
10/10/2019 18:50 12.2 55 0.0 0 0.0 0.1 0.2 236
10/10/2019 19:00 11.2 59 0.0 0 0.0 0.1 0.4 21
10/10/2019 19:10 11.2 60 0.0 0 0.0 0.1 0.5 99
10/10/2019 19:20 11.2 59 0.0 0 0.0 0.1 0.3 77
10/10/2019 19:30 11.0 60 0.0 0 0.0 0.6 2.3 120
10/10/2019 19:40 10.8 62 0.0 0 0.0 0.4 1.3 116
10/10/2019 19:50 11.4 62 0.0 0 0.0 0.5 1.7 53
10/10/2019 20:00 11.3 61 0.0 0 0.0 0.6 2.0 94
10/10/2019 20:10 10.4 65 0.0 0 0.0 0.9 3.2 124
10/10/2019 20:20 11.2 67 0.0 0 0.0 1.4 5.0 124
10/10/2019 20:30 12.7 63 0.0 0 0.0 1.1 4.0 123
10/10/2019 20:40 13.2 60 0.0 0 0.0 1.7 6.0 113
10/10/2019 20:50 13.6 56 0.0 0 0.0 2.6 9.5 109
10/10/2019 21:00 14.0 56 0.0 0 0.0 3.5 12.6 103
10/10/2019 21:10 13.7 55 0.0 0 0.0 3.9 13.9 104
10/10/2019 21:20 13.5 56 0.0 0 0.0 3.8 13.5 102
10/10/2019 21:30 13.3 55 0.0 0 0.0 3.4 12.3 106
10/10/2019 21:40 13.4 53 0.0 0 0.0 3.2 11.7 107
10/10/2019 21:50 13.2 57 0.0 0 0.0 2.3 8.3 112
10/10/2019 22:00 13.0 58 0.0 0 0.0 2.5 9.1 109
10/10/2019 22:10 12.7 58 0.0 0 0.0 2.3 8.1 108
10/10/2019 22:20 12.6 59 0.0 0 0.0 2.7 9.8 108
10/10/2019 22:30 12.6 59 0.0 0 0.0 2.9 10.4 111
10/10/2019 22:40 12.5 59 0.0 0 0.0 4.6 16.4 112
10/10/2019 22:50 12.3 62 0.0 0 0.0 4.2 15.2 107
10/10/2019 23:00 12.2 64 0.0 0 0.0 4.0 14.5 106
10/10/2019 23:10 12.0 62 0.0 0 0.0 4.4 15.8 105
10/10/2019 23:20 11.9 62 0.0 0 0.0 4.1 14.6 108
10/10/2019 23:30 12.0 61 0.0 0 0.0 3.8 13.8 111
10/10/2019 23:40 11.9 59 0.0 0 0.0 4.3 15.4 112
10/10/2019 23:50 11.9 60 0.0 0 0.0 4.7 17.1 108
Anterior Página 1 de 1 Siguiente

NOTA: Tipo de datos según el color:
   - Valores diarios o 10 minutos correctos
   - Valores diarios calculados a partir de un número de datos 10 minutos menor que 144 y mayor que 120, o de un número de datos semihorarios menor que 48 y mayor que 40 (caso de las estaciones de Riegos de Navarra y del MARM)
   - Valores diez minutos estimados


Contacto        Enlaces        Aviso legal